sensor_id;sensor_type;location;lat;lon;timestamp;pressure;altitude;pressure_sealevel;temperature;humidity
79752;BME280;69234;47.446;21.636;2023-08-07T00:00:39;99429.81;;;15.88;92.30
79752;BME280;69234;47.446;21.636;2023-08-07T00:01:16;99440.28;;;15.91;92.20
79752;BME280;69234;47.446;21.636;2023-08-07T00:01:46;99447.09;;;16.02;92.16
79752;BME280;69234;47.446;21.636;2023-08-07T00:02:20;99443.91;;;15.99;91.89
79752;BME280;69234;47.446;21.636;2023-08-07T00:03:25;99429.56;;;15.83;92.62
79752;BME280;69234;47.446;21.636;2023-08-07T00:04:21;99461.56;;;15.95;92.48
79752;BME280;69234;47.446;21.636;2023-08-07T00:05:27;99443.00;;;15.91;92.35
79752;BME280;69234;47.446;21.636;2023-08-07T00:05:58;99452.78;;;15.92;92.07
79752;BME280;69234;47.446;21.636;2023-08-07T00:06:29;99446.28;;;15.87;93.04
79752;BME280;69234;47.446;21.636;2023-08-07T00:07:00;99457.09;;;15.87;91.90
79752;BME280;69234;47.446;21.636;2023-08-07T00:07:31;99442.44;;;15.81;92.23
79752;BME280;69234;47.446;21.636;2023-08-07T00:08:02;99442.53;;;15.73;92.00
79752;BME280;69234;47.446;21.636;2023-08-07T00:09:07;99456.06;;;15.88;92.21
79752;BME280;69234;47.446;21.636;2023-08-07T00:10:33;99465.50;;;15.92;92.54
79752;BME280;69234;47.446;21.636;2023-08-07T00:11:39;99457.47;;;15.84;92.17
79752;BME280;69234;47.446;21.636;2023-08-07T00:13:23;99465.97;;;15.81;92.89
79752;BME280;69234;47.446;21.636;2023-08-07T00:14:04;99460.19;;;15.84;93.39
79752;BME280;69234;47.446;21.636;2023-08-07T00:15:39;99454.78;;;15.84;92.87
79752;BME280;69234;47.446;21.636;2023-08-07T00:16:12;99461.69;;;15.86;92.74
79752;BME280;69234;47.446;21.636;2023-08-07T00:17:18;99471.94;;;15.91;93.11
79752;BME280;69234;47.446;21.636;2023-08-07T00:17:49;99451.41;;;15.82;92.90
79752;BME280;69234;47.446;21.636;2023-08-07T00:18:20;99457.00;;;15.80;91.89
79752;BME280;69234;47.446;21.636;2023-08-07T00:19:26;99461.75;;;15.78;92.47
79752;BME280;69234;47.446;21.636;2023-08-07T00:19:57;99466.44;;;15.84;92.27
79752;BME280;69234;47.446;21.636;2023-08-07T00:20:28;99467.94;;;15.87;92.06
79752;BME280;69234;47.446;21.636;2023-08-07T00:20:59;99451.59;;;15.80;92.15
79752;BME280;69234;47.446;21.636;2023-08-07T00:22:08;99456.06;;;15.88;91.49
79752;BME280;69234;47.446;21.636;2023-08-07T00:23:41;99489.75;;;16.00;91.41
79752;BME280;69234;47.446;21.636;2023-08-07T00:24:15;99473.63;;;15.92;91.48
79752;BME280;69234;47.446;21.636;2023-08-07T00:24:46;99468.41;;;15.90;91.56
79752;BME280;69234;47.446;21.636;2023-08-07T00:25:51;99485.59;;;15.98;91.14
79752;BME280;69234;47.446;21.636;2023-08-07T00:26:22;99481.09;;;15.90;91.79
79752;BME280;69234;47.446;21.636;2023-08-07T00:26:53;99473.16;;;15.88;91.46
79752;BME280;69234;47.446;21.636;2023-08-07T00:27:24;99487.53;;;16.04;91.56
79752;BME280;69234;47.446;21.636;2023-08-07T00:27:57;99493.97;;;16.03;91.24
79752;BME280;69234;47.446;21.636;2023-08-07T00:28:28;99481.75;;;15.92;91.40
79752;BME280;69234;47.446;21.636;2023-08-07T00:29:00;99490.16;;;15.97;92.18
79752;BME280;69234;47.446;21.636;2023-08-07T00:29:31;99480.25;;;15.89;92.02
79752;BME280;69234;47.446;21.636;2023-08-07T00:30:03;99487.38;;;15.90;91.06
79752;BME280;69234;47.446;21.636;2023-08-07T00:30:34;99487.44;;;15.97;90.99
79752;BME280;69234;47.446;21.636;2023-08-07T00:31:05;99476.53;;;15.90;90.99
79752;BME280;69234;47.446;21.636;2023-08-07T00:31:36;99482.78;;;15.91;90.56
79752;BME280;69234;47.446;21.636;2023-08-07T00:32:07;99479.22;;;15.90;91.50
79752;BME280;69234;47.446;21.636;2023-08-07T00:32:39;99480.44;;;15.88;90.82
79752;BME280;69234;47.446;21.636;2023-08-07T00:33:10;99489.13;;;15.98;90.61
79752;BME280;69234;47.446;21.636;2023-08-07T00:33:41;99479.59;;;15.87;90.82
79752;BME280;69234;47.446;21.636;2023-08-07T00:34:15;99492.00;;;15.97;90.93
79752;BME280;69234;47.446;21.636;2023-08-07T00:34:46;99487.53;;;15.89;91.22
79752;BME280;69234;47.446;21.636;2023-08-07T00:35:17;99490.91;;;15.91;90.65
79752;BME280;69234;47.446;21.636;2023-08-07T00:35:48;99494.66;;;15.90;90.80
79752;BME280;69234;47.446;21.636;2023-08-07T00:36:19;99485.84;;;15.88;90.38
79752;BME280;69234;47.446;21.636;2023-08-07T00:36:50;99485.84;;;15.88;90.83
79752;BME280;69234;47.446;21.636;2023-08-07T00:37:21;99479.41;;;15.74;90.72
79752;BME280;69234;47.446;21.636;2023-08-07T00:37:52;99500.81;;;15.84;91.08
79752;BME280;69234;47.446;21.636;2023-08-07T00:38:22;99505.09;;;15.93;90.56
79752;BME280;69234;47.446;21.636;2023-08-07T00:38:53;99492.84;;;15.82;90.44
79752;BME280;69234;47.446;21.636;2023-08-07T00:39:27;99486.81;;;15.80;91.01
79752;BME280;69234;47.446;21.636;2023-08-07T00:39:58;99487.06;;;15.85;90.64
79752;BME280;69234;47.446;21.636;2023-08-07T00:40:39;99501.06;;;15.89;91.12
79752;BME280;69234;47.446;21.636;2023-08-07T00:41:10;99504.63;;;15.89;91.40
79752;BME280;69234;47.446;21.636;2023-08-07T00:41:41;99495.03;;;15.87;91.22
79752;BME280;69234;47.446;21.636;2023-08-07T00:42:48;99494.56;;;15.83;90.39
79752;BME280;69234;47.446;21.636;2023-08-07T00:43:19;99499.78;;;15.85;90.26
79752;BME280;69234;47.446;21.636;2023-08-07T00:43:51;99490.16;;;15.82;89.75
79752;BME280;69234;47.446;21.636;2023-08-07T00:44:22;99489.50;;;15.80;89.75
79752;BME280;69234;47.446;21.636;2023-08-07T00:44:56;99484.94;;;15.81;90.52
79752;BME280;69234;47.446;21.636;2023-08-07T00:46:02;99484.16;;;15.72;90.56
79752;BME280;69234;47.446;21.636;2023-08-07T00:46:34;99512.75;;;15.89;90.22
79752;BME280;69234;47.446;21.636;2023-08-07T00:47:06;99495.56;;;15.82;90.39
79752;BME280;69234;47.446;21.636;2023-08-07T00:47:38;99476.59;;;15.67;90.32
79752;BME280;69234;47.446;21.636;2023-08-07T00:48:10;99498.28;;;15.82;90.70
79752;BME280;69234;47.446;21.636;2023-08-07T00:48:42;99503.78;;;15.89;90.05
79752;BME280;69234;47.446;21.636;2023-08-07T00:49:13;99500.59;;;15.85;90.48
79752;BME280;69234;47.446;21.636;2023-08-07T00:49:44;99504.16;;;15.86;90.71
79752;BME280;69234;47.446;21.636;2023-08-07T00:50:15;99490.25;;;15.74;91.09
79752;BME280;69234;47.446;21.636;2023-08-07T00:51:23;99513.59;;;15.90;90.75
79752;BME280;69234;47.446;21.636;2023-08-07T00:51:54;99517.16;;;15.90;89.93
79752;BME280;69234;47.446;21.636;2023-08-07T00:52:25;99527.63;;;15.93;89.82
79752;BME280;69234;47.446;21.636;2023-08-07T00:52:58;99491.19;;;15.81;89.41
79752;BME280;69234;47.446;21.636;2023-08-07T00:54:06;99501.28;;;15.87;89.79
79752;BME280;69234;47.446;21.636;2023-08-07T00:54:42;99508.00;;;15.91;90.57
79752;BME280;69234;47.446;21.636;2023-08-07T00:55:13;99492.22;;;15.80;89.90
79752;BME280;69234;47.446;21.636;2023-08-07T00:55:46;99504.34;;;15.84;89.66
79752;BME280;69234;47.446;21.636;2023-08-07T00:56:18;99500.50;;;15.79;89.95
79752;BME280;69234;47.446;21.636;2023-08-07T00:56:49;99510.44;;;15.86;91.32
79752;BME280;69234;47.446;21.636;2023-08-07T00:57:21;99512.94;;;15.88;90.93
79752;BME280;69234;47.446;21.636;2023-08-07T00:57:53;99526.22;;;15.98;90.50
79752;BME280;69234;47.446;21.636;2023-08-07T00:58:24;99505.66;;;15.88;90.04
79752;BME280;69234;47.446;21.636;2023-08-07T00:58:57;99518.25;;;15.96;90.58
79752;BME280;69234;47.446;21.636;2023-08-07T00:59:28;99513.78;;;15.88;90.88
79752;BME280;69234;47.446;21.636;2023-08-07T00:59:59;99510.91;;;15.90;91.24
79752;BME280;69234;47.446;21.636;2023-08-07T01:00:31;99520.78;;;15.98;91.50
79752;BME280;69234;47.446;21.636;2023-08-07T01:01:02;99499.97;;;15.83;91.04
79752;BME280;69234;47.446;21.636;2023-08-07T01:01:33;99528.91;;;15.98;91.49
79752;BME280;69234;47.446;21.636;2023-08-07T01:02:05;99503.97;;;15.87;90.52
79752;BME280;69234;47.446;21.636;2023-08-07T01:02:36;99507.16;;;15.91;90.73
79752;BME280;69234;47.446;21.636;2023-08-07T01:03:07;99523.69;;;15.96;91.19
79752;BME280;69234;47.446;21.636;2023-08-07T01:03:38;99514.50;;;15.82;90.54
79752;BME280;69234;47.446;21.636;2023-08-07T01:04:16;99506.03;;;15.85;90.84
79752;BME280;69234;47.446;21.636;2023-08-07T01:04:47;99506.69;;;15.87;90.38
79752;BME280;69234;47.446;21.636;2023-08-07T01:05:18;99503.31;;;15.85;91.44
79752;BME280;69234;47.446;21.636;2023-08-07T01:05:50;99513.78;;;15.88;91.16
79752;BME280;69234;47.446;21.636;2023-08-07T01:06:21;99500.34;;;15.80;90.58
79752;BME280;69234;47.446;21.636;2023-08-07T01:06:52;99496.31;;;15.76;90.49
79752;BME280;69234;47.446;21.636;2023-08-07T01:07:23;99503.69;;;15.82;91.37
79752;BME280;69234;47.446;21.636;2023-08-07T01:07:55;99501.63;;;15.84;90.86
79752;BME280;69234;47.446;21.636;2023-08-07T01:08:27;99510.22;;;15.88;90.88
79752;BME280;69234;47.446;21.636;2023-08-07T01:08:59;99504.81;;;15.88;91.16
79752;BME280;69234;47.446;21.636;2023-08-07T01:09:30;99516.78;;;15.93;90.90
79752;BME280;69234;47.446;21.636;2023-08-07T01:10:01;99505.38;;;15.83;91.21
79752;BME280;69234;47.446;21.636;2023-08-07T01:11:49;99514.06;;;15.93;91.10
79752;BME280;69234;47.446;21.636;2023-08-07T01:12:30;99512.56;;;15.91;90.51
79752;BME280;69234;47.446;21.636;2023-08-07T01:13:30;99508.56;;;15.87;90.65
79752;BME280;69234;47.446;21.636;2023-08-07T01:14:58;99524.25;;;15.91;90.60
79752;BME280;69234;47.446;21.636;2023-08-07T01:15:34;99522.56;;;15.90;90.33
79752;BME280;69234;47.446;21.636;2023-08-07T01:16:37;99518.00;;;15.91;91.12
79752;BME280;69234;47.446;21.636;2023-08-07T01:17:16;99530.88;;;15.89;90.13
79752;BME280;69234;47.446;21.636;2023-08-07T01:17:50;99528.72;;;15.84;90.18
79752;BME280;69234;47.446;21.636;2023-08-07T01:18:23;99530.41;;;15.85;90.85
79752;BME280;69234;47.446;21.636;2023-08-07T01:18:57;99515.28;;;15.76;91.16
79752;BME280;69234;47.446;21.636;2023-08-07T01:19:29;99524.72;;;15.80;90.49
79752;BME280;69234;47.446;21.636;2023-08-07T01:20:02;99531.44;;;15.84;91.33
79752;BME280;69234;47.446;21.636;2023-08-07T01:20:33;99528.88;;;15.83;91.05
79752;BME280;69234;47.446;21.636;2023-08-07T01:21:04;99514.63;;;15.74;91.46
79752;BME280;69234;47.446;21.636;2023-08-07T01:21:35;99518.00;;;15.76;91.04
79752;BME280;69234;47.446;21.636;2023-08-07T01:22:15;99529.38;;;15.86;90.67
79752;BME280;69234;47.446;21.636;2023-08-07T01:22:46;99515.44;;;15.75;90.80
79752;BME280;69234;47.446;21.636;2023-08-07T01:23:17;99507.91;;;15.70;91.35
79752;BME280;69234;47.446;21.636;2023-08-07T01:23:49;99514.16;;;15.71;91.06
79752;BME280;69234;47.446;21.636;2023-08-07T01:24:20;99519.34;;;15.72;91.08
79752;BME280;69234;47.446;21.636;2023-08-07T01:24:51;99514.16;;;15.71;91.98
79752;BME280;69234;47.446;21.636;2023-08-07T01:25:22;99522.28;;;15.71;91.18
79752;BME280;69234;47.446;21.636;2023-08-07T01:25:53;99526.66;;;15.72;91.92
79752;BME280;69234;47.446;21.636;2023-08-07T01:26:24;99518.91;;;15.68;92.24
79752;BME280;69234;47.446;21.636;2023-08-07T01:27:09;99509.28;;;15.66;91.64
79752;BME280;69234;47.446;21.636;2023-08-07T01:28:16;99537.41;;;15.80;91.59
79752;BME280;69234;47.446;21.636;2023-08-07T01:29:25;99522.47;;;15.69;91.83
79752;BME280;69234;47.446;21.636;2023-08-07T01:30:30;99527.22;;;15.67;91.97
79752;BME280;69234;47.446;21.636;2023-08-07T01:31:11;99524.16;;;15.62;91.85
79752;BME280;69234;47.446;21.636;2023-08-07T01:31:48;99522.50;;;15.61;91.93
79752;BME280;69234;47.446;21.636;2023-08-07T01:33:29;99529.31;;;15.57;92.32
79752;BME280;69234;47.446;21.636;2023-08-07T01:34:05;99535.56;;;15.57;92.91
79752;BME280;69234;47.446;21.636;2023-08-07T01:34:41;99529.19;;;15.50;92.14
79752;BME280;69234;47.446;21.636;2023-08-07T01:35:16;99534.06;;;15.55;92.13
79752;BME280;69234;47.446;21.636;2023-08-07T01:35:54;99528.91;;;15.45;92.45
79752;BME280;69234;47.446;21.636;2023-08-07T01:36:28;99538.53;;;15.48;92.72
79752;BME280;69234;47.446;21.636;2023-08-07T01:37:01;99533.59;;;15.51;92.69
79752;BME280;69234;47.446;21.636;2023-08-07T01:37:39;99518.63;;;15.40;92.27
79752;BME280;69234;47.446;21.636;2023-08-07T01:38:11;99539.00;;;15.51;92.74
79752;BME280;69234;47.446;21.636;2023-08-07T01:38:45;99547.31;;;15.50;92.55
79752;BME280;69234;47.446;21.636;2023-08-07T01:39:20;99518.81;;;15.39;93.03
79752;BME280;69234;47.446;21.636;2023-08-07T01:39:51;99535.53;;;15.42;92.82
79752;BME280;69234;47.446;21.636;2023-08-07T01:40:24;99542.25;;;15.46;92.76
79752;BME280;69234;47.446;21.636;2023-08-07T01:40:58;99533.00;;;15.41;92.51
79752;BME280;69234;47.446;21.636;2023-08-07T01:41:31;99530.84;;;15.36;92.88
79752;BME280;69234;47.446;21.636;2023-08-07T01:42:03;99545.69;;;15.40;92.67
79752;BME280;69234;47.446;21.636;2023-08-07T01:42:36;99549.06;;;15.42;92.58
79752;BME280;69234;47.446;21.636;2023-08-07T01:43:08;99548.88;;;15.44;92.49
79752;BME280;69234;47.446;21.636;2023-08-07T01:43:40;99540.47;;;15.39;93.38
79752;BME280;69234;47.446;21.636;2023-08-07T01:44:12;99550.75;;;15.43;93.00
79752;BME280;69234;47.446;21.636;2023-08-07T01:44:43;99536.63;;;15.33;92.96
79752;BME280;69234;47.446;21.636;2023-08-07T01:45:23;99543.34;;;15.37;93.23
79752;BME280;69234;47.446;21.636;2023-08-07T01:45:54;99532.03;;;15.34;93.20
79752;BME280;69234;47.446;21.636;2023-08-07T01:46:25;99538.97;;;15.36;93.07
79752;BME280;69234;47.446;21.636;2023-08-07T01:46:58;99534.13;;;15.32;93.15
79752;BME280;69234;47.446;21.636;2023-08-07T01:48:05;99541.91;;;15.27;93.19
79752;BME280;69234;47.446;21.636;2023-08-07T01:48:36;99543.44;;;15.29;93.33
79752;BME280;69234;47.446;21.636;2023-08-07T01:49:07;99534.81;;;15.26;93.59
79752;BME280;69234;47.446;21.636;2023-08-07T01:49:38;99543.22;;;15.31;93.70
79752;BME280;69234;47.446;21.636;2023-08-07T01:50:11;99533.31;;;15.23;93.61
79752;BME280;69234;47.446;21.636;2023-08-07T01:50:42;99528.75;;;15.23;93.82
79752;BME280;69234;47.446;21.636;2023-08-07T01:51:48;99546.81;;;15.31;93.83
79752;BME280;69234;47.446;21.636;2023-08-07T01:52:20;99543.44;;;15.29;92.94
79752;BME280;69234;47.446;21.636;2023-08-07T01:52:52;99539.22;;;15.27;93.22
79752;BME280;69234;47.446;21.636;2023-08-07T01:53:23;99558.94;;;15.35;93.36
79752;BME280;69234;47.446;21.636;2023-08-07T01:53:54;99541.78;;;15.20;93.87
79752;BME280;69234;47.446;21.636;2023-08-07T01:54:25;99540.78;;;15.21;94.02
79752;BME280;69234;47.446;21.636;2023-08-07T01:54:56;99554.59;;;15.26;93.35
79752;BME280;69234;47.446;21.636;2023-08-07T01:55:27;99542.81;;;15.19;93.61
79752;BME280;69234;47.446;21.636;2023-08-07T01:56:33;99550.09;;;15.18;94.48
79752;BME280;69234;47.446;21.636;2023-08-07T01:57:04;99558.22;;;15.18;94.24
79752;BME280;69234;47.446;21.636;2023-08-07T01:57:35;99551.13;;;15.17;94.44
79752;BME280;69234;47.446;21.636;2023-08-07T01:58:06;99555.03;;;15.15;93.71
79752;BME280;69234;47.446;21.636;2023-08-07T01:58:37;99550.47;;;15.15;94.19
79752;BME280;69234;47.446;21.636;2023-08-07T01:59:08;99555.88;;;15.15;93.84
79752;BME280;69234;47.446;21.636;2023-08-07T01:59:39;99547.09;;;15.13;94.75
79752;BME280;69234;47.446;21.636;2023-08-07T02:00:10;99564.28;;;15.20;93.94
79752;BME280;69234;47.446;21.636;2023-08-07T02:00:45;99565.78;;;15.23;94.41
79752;BME280;69234;47.446;21.636;2023-08-07T02:01:16;99563.63;;;15.18;94.40
79752;BME280;69234;47.446;21.636;2023-08-07T02:01:47;99557.75;;;15.15;94.16
79752;BME280;69234;47.446;21.636;2023-08-07T02:02:19;99545.47;;;15.04;94.12
79752;BME280;69234;47.446;21.636;2023-08-07T02:02:49;99568.22;;;15.18;94.02
79752;BME280;69234;47.446;21.636;2023-08-07T02:03:20;99551.53;;;15.06;94.15
79752;BME280;69234;47.446;21.636;2023-08-07T02:03:52;99547.84;;;15.07;94.65
79752;BME280;69234;47.446;21.636;2023-08-07T02:04:23;99560.44;;;15.15;94.47
79752;BME280;69234;47.446;21.636;2023-08-07T02:04:55;99549.19;;;15.03;94.48
79752;BME280;69234;47.446;21.636;2023-08-07T02:05:25;99567.53;;;15.16;94.16
79752;BME280;69234;47.446;21.636;2023-08-07T02:05:56;99550.34;;;15.09;94.88
79752;BME280;69234;47.446;21.636;2023-08-07T02:06:29;99560.13;;;15.10;94.13
79752;BME280;69234;47.446;21.636;2023-08-07T02:07:00;99564.00;;;15.15;94.42
79752;BME280;69234;47.446;21.636;2023-08-07T02:07:31;99549.16;;;15.11;94.27
79752;BME280;69234;47.446;21.636;2023-08-07T02:08:02;99557.06;;;15.13;93.70
79752;BME280;69234;47.446;21.636;2023-08-07T02:08:34;99575.09;;;15.20;94.65
79752;BME280;69234;47.446;21.636;2023-08-07T02:09:05;99555.75;;;15.09;94.04
79752;BME280;69234;47.446;21.636;2023-08-07T02:09:36;99557.63;;;15.08;94.79
79752;BME280;69234;47.446;21.636;2023-08-07T02:10:07;99552.28;;;15.00;94.39
79752;BME280;69234;47.446;21.636;2023-08-07T02:10:38;99550.22;;;15.02;94.41
79752;BME280;69234;47.446;21.636;2023-08-07T02:11:09;99558.53;;;15.01;93.92
79752;BME280;69234;47.446;21.636;2023-08-07T02:11:41;99562.56;;;15.05;93.92
79752;BME280;69234;47.446;21.636;2023-08-07T02:12:13;99559.38;;;15.01;94.98
79752;BME280;69234;47.446;21.636;2023-08-07T02:12:44;99562.06;;;15.01;94.49
79752;BME280;69234;47.446;21.636;2023-08-07T02:13:15;99552.28;;;15.00;95.19
79752;BME280;69234;47.446;21.636;2023-08-07T02:13:46;99568.25;;;15.10;94.51
79752;BME280;69234;47.446;21.636;2023-08-07T02:14:17;99560.88;;;15.04;95.12
79752;BME280;69234;47.446;21.636;2023-08-07T02:14:48;99561.53;;;15.06;94.21
79752;BME280;69234;47.446;21.636;2023-08-07T02:15:19;99553.97;;;15.01;94.37
79752;BME280;69234;47.446;21.636;2023-08-07T02:15:55;99551.41;;;14.99;94.35
79752;BME280;69234;47.446;21.636;2023-08-07T02:16:26;99567.59;;;15.08;94.64
79752;BME280;69234;47.446;21.636;2023-08-07T02:17:33;99553.13;;;15.01;95.18
79752;BME280;69234;47.446;21.636;2023-08-07T02:18:04;99568.63;;;15.07;94.79
79752;BME280;69234;47.446;21.636;2023-08-07T02:18:35;99569.16;;;15.02;94.40
79752;BME280;69234;47.446;21.636;2023-08-07T02:19:06;99551.13;;;14.94;94.28
79752;BME280;69234;47.446;21.636;2023-08-07T02:19:37;99548.41;;;14.94;95.19
79752;BME280;69234;47.446;21.636;2023-08-07T02:20:09;99558.41;;;14.94;94.87
79752;BME280;69234;47.446;21.636;2023-08-07T02:20:40;99564.28;;;14.97;94.85
79752;BME280;69234;47.446;21.636;2023-08-07T02:21:12;99567.00;;;14.97;94.62
79752;BME280;69234;47.446;21.636;2023-08-07T02:22:18;99569.69;;;14.97;94.98
79752;BME280;69234;47.446;21.636;2023-08-07T02:22:49;99564.66;;;14.94;94.43
79752;BME280;69234;47.446;21.636;2023-08-07T02:23:19;99561.25;;;14.92;94.76
79752;BME280;69234;47.446;21.636;2023-08-07T02:23:50;99559.25;;;14.94;95.03
79752;BME280;69234;47.446;21.636;2023-08-07T02:24:21;99564.66;;;14.94;94.80
79752;BME280;69234;47.446;21.636;2023-08-07T02:24:52;99573.78;;;14.93;94.24
79752;BME280;69234;47.446;21.636;2023-08-07T02:25:23;99576.44;;;15.02;94.54
79752;BME280;69234;47.446;21.636;2023-08-07T02:26:50;99561.81;;;14.88;94.77
79752;BME280;69234;47.446;21.636;2023-08-07T02:27:23;99565.00;;;14.91;94.87
79752;BME280;69234;47.446;21.636;2023-08-07T02:27:54;99571.25;;;14.92;94.57
79752;BME280;69234;47.446;21.636;2023-08-07T02:28:25;99554.88;;;14.85;94.93
79752;BME280;69234;47.446;21.636;2023-08-07T02:28:56;99569.72;;;14.89;94.56
79752;BME280;69234;47.446;21.636;2023-08-07T02:29:52;99578.84;;;14.96;94.45
79752;BME280;69234;47.446;21.636;2023-08-07T02:30:23;99566.19;;;14.89;94.69
79752;BME280;69234;47.446;21.636;2023-08-07T02:30:54;99565.19;;;14.90;94.63
79752;BME280;69234;47.446;21.636;2023-08-07T02:31:25;99577.34;;;14.94;95.11
79752;BME280;69234;47.446;21.636;2023-08-07T02:32:32;99568.41;;;14.85;94.63
79752;BME280;69234;47.446;21.636;2023-08-07T02:33:03;99562.53;;;14.82;95.53
79752;BME280;69234;47.446;21.636;2023-08-07T02:33:34;99571.59;;;14.89;95.22
79752;BME280;69234;47.446;21.636;2023-08-07T02:34:05;99568.41;;;14.85;95.05
79752;BME280;69234;47.446;21.636;2023-08-07T02:35:11;99573.13;;;14.91;94.49
79752;BME280;69234;47.446;21.636;2023-08-07T02:35:42;99576.38;;;14.87;94.60
79752;BME280;69234;47.446;21.636;2023-08-07T02:36:13;99577.84;;;14.89;94.96
79752;BME280;69234;47.446;21.636;2023-08-07T02:36:44;99570.28;;;14.85;95.24
79752;BME280;69234;47.446;21.636;2023-08-07T02:37:15;99569.44;;;14.84;95.00
79752;BME280;69234;47.446;21.636;2023-08-07T02:37:48;99585.78;;;14.91;95.11
79752;BME280;69234;47.446;21.636;2023-08-07T02:38:19;99566.06;;;14.82;94.32
79752;BME280;69234;47.446;21.636;2023-08-07T02:38:50;99576.38;;;14.87;94.71
79752;BME280;69234;47.446;21.636;2023-08-07T02:39:22;99576.53;;;14.85;94.30
79752;BME280;69234;47.446;21.636;2023-08-07T02:39:53;99570.81;;;14.80;95.25
79752;BME280;69234;47.446;21.636;2023-08-07T02:40:24;99582.28;;;14.82;95.37
79752;BME280;69234;47.446;21.636;2023-08-07T02:40:55;99569.97;;;14.80;94.88
79752;BME280;69234;47.446;21.636;2023-08-07T02:41:26;99577.25;;;14.79;94.61
79752;BME280;69234;47.446;21.636;2023-08-07T02:41:58;99571.84;;;14.79;94.50
79752;BME280;69234;47.446;21.636;2023-08-07T02:42:28;99567.97;;;14.73;94.22
79752;BME280;69234;47.446;21.636;2023-08-07T02:42:59;99563.97;;;14.69;94.69
79752;BME280;69234;47.446;21.636;2023-08-07T02:43:30;99584.00;;;14.83;94.69
79752;BME280;69234;47.446;21.636;2023-08-07T02:44:03;99590.88;;;14.86;95.18
79752;BME280;69234;47.446;21.636;2023-08-07T02:44:34;99584.00;;;14.83;95.55
79752;BME280;69234;47.446;21.636;2023-08-07T02:45:06;99573.19;;;14.75;95.37
79752;BME280;69234;47.446;21.636;2023-08-07T02:45:37;99592.44;;;14.80;95.04
79752;BME280;69234;47.446;21.636;2023-08-07T02:46:08;99585.03;;;14.74;95.27
79752;BME280;69234;47.446;21.636;2023-08-07T02:46:39;99580.31;;;14.76;95.16
79752;BME280;69234;47.446;21.636;2023-08-07T02:47:10;99591.78;;;14.78;95.22
79752;BME280;69234;47.446;21.636;2023-08-07T02:47:41;99578.66;;;14.67;95.39
79752;BME280;69234;47.446;21.636;2023-08-07T02:48:12;99589.78;;;14.72;95.23
79752;BME280;69234;47.446;21.636;2023-08-07T02:48:45;99579.34;;;14.69;94.67
79752;BME280;69234;47.446;21.636;2023-08-07T02:49:16;99581.00;;;14.70;95.32
79752;BME280;69234;47.446;21.636;2023-08-07T02:49:47;99584.38;;;14.72;95.17
79752;BME280;69234;47.446;21.636;2023-08-07T02:50:18;99576.50;;;14.62;95.12
79752;BME280;69234;47.446;21.636;2023-08-07T02:50:49;99590.16;;;14.69;95.19
79752;BME280;69234;47.446;21.636;2023-08-07T02:51:22;99578.38;;;14.62;94.69
79752;BME280;69234;47.446;21.636;2023-08-07T02:51:53;99585.59;;;14.69;95.39
79752;BME280;69234;47.446;21.636;2023-08-07T02:52:23;99589.13;;;14.70;94.96
79752;BME280;69234;47.446;21.636;2023-08-07T02:52:54;99592.84;;;14.69;95.02
79752;BME280;69234;47.446;21.636;2023-08-07T02:53:25;99601.25;;;14.74;95.01
79752;BME280;69234;47.446;21.636;2023-08-07T02:54:31;99586.47;;;14.62;95.20
79752;BME280;69234;47.446;21.636;2023-08-07T02:55:02;99590.31;;;14.67;95.60
79752;BME280;69234;47.446;21.636;2023-08-07T02:55:33;99584.41;;;14.64;95.33
79752;BME280;69234;47.446;21.636;2023-08-07T02:56:04;99591.50;;;14.65;94.91
79752;BME280;69234;47.446;21.636;2023-08-07T02:56:35;99590.50;;;14.66;94.98
79752;BME280;69234;47.446;21.636;2023-08-07T02:57:06;99589.81;;;14.64;94.45
79752;BME280;69234;47.446;21.636;2023-08-07T02:57:37;99597.94;;;14.64;94.82
79752;BME280;69234;47.446;21.636;2023-08-07T02:58:08;99602.63;;;14.70;94.62
79752;BME280;69234;47.446;21.636;2023-08-07T02:59:59;99596.56;;;14.68;95.22
79752;BME280;69234;47.446;21.636;2023-08-07T03:00:30;99586.47;;;14.62;94.51
79752;BME280;69234;47.446;21.636;2023-08-07T03:01:04;99592.72;;;14.62;94.06
79752;BME280;69234;47.446;21.636;2023-08-07T03:01:38;99601.97;;;14.68;94.73
79752;BME280;69234;47.446;21.636;2023-08-07T03:02:09;99594.94;;;14.59;94.21
79752;BME280;69234;47.446;21.636;2023-08-07T03:02:40;99607.03;;;14.71;94.35
79752;BME280;69234;47.446;21.636;2023-08-07T03:03:11;99587.81;;;14.58;94.52
79752;BME280;69234;47.446;21.636;2023-08-07T03:03:42;99606.72;;;14.66;94.13
79752;BME280;69234;47.446;21.636;2023-08-07T03:04:13;99581.56;;;14.57;94.50
79752;BME280;69234;47.446;21.636;2023-08-07T03:04:44;99587.81;;;14.58;94.50
79752;BME280;69234;47.446;21.636;2023-08-07T03:05:15;99589.69;;;14.57;94.72
79752;BME280;69234;47.446;21.636;2023-08-07T03:05:52;99592.22;;;14.59;94.80
79752;BME280;69234;47.446;21.636;2023-08-07T03:06:23;99600.63;;;14.64;94.73
79752;BME280;69234;47.446;21.636;2023-08-07T03:06:54;99580.44;;;14.52;94.18
79752;BME280;69234;47.446;21.636;2023-08-07T03:07:25;99592.22;;;14.59;94.68
79752;BME280;69234;47.446;21.636;2023-08-07T03:08:33;99601.13;;;14.67;94.79
79752;BME280;69234;47.446;21.636;2023-08-07T03:09:04;99596.41;;;14.61;93.66
79752;BME280;69234;47.446;21.636;2023-08-07T03:09:35;99585.47;;;14.55;94.20
79752;BME280;69234;47.446;21.636;2023-08-07T03:10:06;99585.13;;;14.58;94.19
79752;BME280;69234;47.446;21.636;2023-08-07T03:10:38;99596.41;;;14.61;94.09
79752;BME280;69234;47.446;21.636;2023-08-07T03:11:08;99586.34;;;14.55;94.29
79752;BME280;69234;47.446;21.636;2023-08-07T03:11:39;99584.81;;;14.53;94.30
79752;BME280;69234;47.446;21.636;2023-08-07T03:12:45;99598.13;;;14.62;94.72
79752;BME280;69234;47.446;21.636;2023-08-07T03:13:16;99579.56;;;14.51;93.86